sensor_id;sensor_type;location;lat;lon;timestamp;pressure;altitude;pressure_sealevel;temperature;humidity
29909;BME280;36247;51.952;6.146;2022-11-04T00:02:00;99879.97;;;10.13;100.00
29909;BME280;36247;51.952;6.146;2022-11-04T00:04:27;99893.19;;;10.13;100.00
29909;BME280;36247;51.952;6.146;2022-11-04T00:06:54;99887.91;;;10.13;100.00
29909;BME280;36247;51.952;6.146;2022-11-04T00:09:25;99909.94;;;10.13;100.00
29909;BME280;36247;51.952;6.146;2022-11-04T00:11:52;99913.50;;;10.15;100.00
29909;BME280;36247;51.952;6.146;2022-11-04T00:14:36;99916.16;;;10.15;100.00
29909;BME280;36247;51.952;6.146;2022-11-04T00:17:03;99918.78;;;10.17;100.00
29909;BME280;36247;51.952;6.146;2022-11-04T00:19:52;99922.31;;;10.14;100.00
29909;BME280;36247;51.952;6.146;2022-11-04T00:22:37;99927.59;;;10.17;100.00
29909;BME280;36247;51.952;6.146;2022-11-04T00:25:22;99943.50;;;10.17;100.00
29909;BME280;36247;51.952;6.146;2022-11-04T00:28:11;99938.19;;;10.19;100.00
29909;BME280;36247;51.952;6.146;2022-11-04T00:30:56;99944.34;;;10.09;100.00
29909;BME280;36247;51.952;6.146;2022-11-04T00:33:23;99943.47;;;10.06;100.00
29909;BME280;36247;51.952;6.146;2022-11-04T00:35:53;99940.84;;;10.06;100.00
29909;BME280;36247;51.952;6.146;2022-11-04T00:38:19;99954.94;;;10.05;100.00
29909;BME280;36247;51.952;6.146;2022-11-04T00:40:45;99949.66;;;10.02;100.00
29909;BME280;36247;51.952;6.146;2022-11-04T00:43:11;99960.22;;;9.99;100.00
29909;BME280;36247;51.952;6.146;2022-11-04T00:45:36;99965.50;;;9.98;100.00
29909;BME280;36247;51.952;6.146;2022-11-04T00:48:02;99965.53;;;9.99;100.00
29909;BME280;36247;51.952;6.146;2022-11-04T00:50:28;99974.31;;;9.98;100.00
29909;BME280;36247;51.952;6.146;2022-11-04T00:53:01;99967.25;;;9.89;100.00
29909;BME280;36247;51.952;6.146;2022-11-04T00:55:26;99974.31;;;9.89;100.00
29909;BME280;36247;51.952;6.146;2022-11-04T00:57:53;99976.06;;;9.84;100.00
29909;BME280;36247;51.952;6.146;2022-11-04T01:00:18;99979.59;;;9.83;100.00
29909;BME280;36247;51.952;6.146;2022-11-04T01:02:44;99975.16;;;9.79;100.00
29909;BME280;36247;51.952;6.146;2022-11-04T01:05:10;99980.44;;;9.76;100.00
29909;BME280;36247;51.952;6.146;2022-11-04T01:07:36;99971.63;;;9.67;100.00
29909;BME280;36247;51.952;6.146;2022-11-04T01:10:02;99968.97;;;9.64;100.00
29909;BME280;36247;51.952;6.146;2022-11-04T01:12:28;99974.22;;;9.63;100.00
29909;BME280;36247;51.952;6.146;2022-11-04T01:14:53;99979.47;;;9.58;100.00
29909;BME280;36247;51.952;6.146;2022-11-04T01:17:19;99980.38;;;9.52;100.00
29909;BME280;36247;51.952;6.146;2022-11-04T01:19:44;99968.00;;;9.45;100.00
29909;BME280;36247;51.952;6.146;2022-11-04T01:22:10;99973.28;;;9.45;100.00
29909;BME280;36247;51.952;6.146;2022-11-04T01:24:35;99976.78;;;9.43;100.00
29909;BME280;36247;51.952;6.146;2022-11-04T01:27:01;99981.19;;;9.38;100.00
29909;BME280;36247;51.952;6.146;2022-11-04T01:29:26;99989.09;;;9.38;100.00
29909;BME280;36247;51.952;6.146;2022-11-04T01:31:52;99991.69;;;9.28;100.00
29909;BME280;36247;51.952;6.146;2022-11-04T01:34:18;100000.50;;;9.27;100.00
29909;BME280;36247;51.952;6.146;2022-11-04T01:36:43;100009.31;;;9.26;100.00
29909;BME280;36247;51.952;6.146;2022-11-04T01:39:10;100020.75;;;9.28;100.00
29909;BME280;36247;51.952;6.146;2022-11-04T01:41:36;100021.66;;;9.29;100.00
29909;BME280;36247;51.952;6.146;2022-11-04T01:45:03;100026.94;;;9.27;100.00
29909;BME280;36247;51.952;6.146;2022-11-04T01:47:24;100034.88;;;9.27;100.00
29909;BME280;36247;51.952;6.146;2022-11-04T01:50:04;100023.38;;;9.25;100.00
29909;BME280;36247;51.952;6.146;2022-11-04T01:52:59;100028.63;;;9.17;100.00
29909;BME280;36247;51.952;6.146;2022-11-04T01:55:30;100035.69;;;9.20;100.00
29909;BME280;36247;51.952;6.146;2022-11-04T01:58:01;100042.72;;;9.18;100.00
29909;BME280;36247;51.952;6.146;2022-11-04T02:00:27;100046.28;;;9.20;100.00
29909;BME280;36247;51.952;6.146;2022-11-04T02:02:54;100051.53;;;9.14;100.00
29909;BME280;36247;51.952;6.146;2022-11-04T02:05:23;100041.78;;;9.10;100.00
29909;BME280;36247;51.952;6.146;2022-11-04T02:07:50;100048.75;;;9.02;100.00
29909;BME280;36247;51.952;6.146;2022-11-04T02:10:19;100045.16;;;8.90;100.00
29909;BME280;36247;51.952;6.146;2022-11-04T02:12:47;100045.16;;;8.87;100.00
29909;BME280;36247;51.952;6.146;2022-11-04T02:15:36;100054.81;;;8.88;100.00
29909;BME280;36247;51.952;6.146;2022-11-04T02:18:31;100063.63;;;8.84;100.00
29909;BME280;36247;51.952;6.146;2022-11-04T02:21:44;100059.19;;;8.83;100.00
29909;BME280;36247;51.952;6.146;2022-11-04T02:24:11;100068.88;;;8.79;100.00
29909;BME280;36247;51.952;6.146;2022-11-04T02:29:51;100077.66;;;8.80;100.00
29909;BME280;36247;51.952;6.146;2022-11-04T02:33:16;100084.78;;;8.90;100.00
29909;BME280;36247;51.952;6.146;2022-11-04T02:35:27;100089.22;;;8.93;100.00
29909;BME280;36247;51.952;6.146;2022-11-04T02:38:09;100093.59;;;8.91;100.00
29909;BME280;36247;51.952;6.146;2022-11-04T02:43:48;100089.25;;;8.94;100.00
29909;BME280;36247;51.952;6.146;2022-11-04T02:46:35;100084.84;;;8.96;100.00
29909;BME280;36247;51.952;6.146;2022-11-04T02:49:08;100083.03;;;8.92;100.00
29909;BME280;36247;51.952;6.146;2022-11-04T02:51:40;100084.84;;;8.95;100.00
29909;BME280;36247;51.952;6.146;2022-11-04T02:56:53;100097.22;;;9.00;100.00
29909;BME280;36247;51.952;6.146;2022-11-04T02:59:58;100103.38;;;9.03;100.00
29909;BME280;36247;51.952;6.146;2022-11-04T03:02:35;100103.38;;;9.03;100.00
29909;BME280;36247;51.952;6.146;2022-11-04T03:05:05;100108.69;;;9.06;100.00
29909;BME280;36247;51.952;6.146;2022-11-04T03:07:35;100116.63;;;9.07;100.00
29909;BME280;36247;51.952;6.146;2022-11-04T03:10:13;100115.78;;;9.11;100.00
29909;BME280;36247;51.952;6.146;2022-11-04T03:13:14;100123.72;;;9.13;100.00
29909;BME280;36247;51.952;6.146;2022-11-04T03:15:47;100127.22;;;9.12;100.00
29909;BME280;36247;51.952;6.146;2022-11-04T03:18:37;100121.94;;;9.10;100.00
29909;BME280;36247;51.952;6.146;2022-11-04T03:21:08;100136.09;;;9.14;100.00
29909;BME280;36247;51.952;6.146;2022-11-04T03:23:35;100134.28;;;9.11;100.00
29909;BME280;36247;51.952;6.146;2022-11-04T03:26:17;100144.88;;;9.13;100.00
29909;BME280;36247;51.952;6.146;2022-11-04T03:29:11;100148.38;;;9.12;100.00
29909;BME280;36247;51.952;6.146;2022-11-04T03:31:46;100143.09;;;9.12;100.00
29909;BME280;36247;51.952;6.146;2022-11-04T03:34:14;100148.38;;;9.12;100.00
29909;BME280;36247;51.952;6.146;2022-11-04T03:36:40;100158.94;;;9.10;100.00
29909;BME280;36247;51.952;6.146;2022-11-04T03:39:05;100158.91;;;9.09;100.00
29909;BME280;36247;51.952;6.146;2022-11-04T03:41:43;100155.44;;;9.13;100.00
29909;BME280;36247;51.952;6.146;2022-11-04T03:44:11;100168.63;;;9.11;100.00
29909;BME280;36247;51.952;6.146;2022-11-04T03:46:36;100163.34;;;9.10;100.00
29909;BME280;36247;51.952;6.146;2022-11-04T03:49:04;100170.41;;;9.11;100.00
29909;BME280;36247;51.952;6.146;2022-11-04T03:51:29;100175.72;;;9.12;100.00
29909;BME280;36247;51.952;6.146;2022-11-04T03:53:55;100180.09;;;9.12;100.00
29909;BME280;36247;51.952;6.146;2022-11-04T04:02:19;100181.81;;;9.07;100.00
29909;BME280;36247;51.952;6.146;2022-11-04T04:04:59;100184.41;;;9.00;100.00
29909;BME280;36247;51.952;6.146;2022-11-04T04:07:36;100182.63;;;8.99;100.00
29909;BME280;36247;51.952;6.146;2022-11-04T04:10:15;100179.91;;;8.93;100.00
29909;BME280;36247;51.952;6.146;2022-11-04T04:13:02;100179.91;;;8.92;100.00
29909;BME280;36247;51.952;6.146;2022-11-04T04:15:42;100185.19;;;8.90;100.00
29909;BME280;36247;51.952;6.146;2022-11-04T04:18:12;100189.50;;;8.83;100.00
29909;BME280;36247;51.952;6.146;2022-11-04T04:20:39;100188.59;;;8.80;100.00
29909;BME280;36247;51.952;6.146;2022-11-04T04:23:28;100194.72;;;8.79;100.00
29909;BME280;36247;51.952;6.146;2022-11-04T04:26:14;100200.00;;;8.77;100.00
29909;BME280;36247;51.952;6.146;2022-11-04T04:28:59;100197.31;;;8.74;100.00
29909;BME280;36247;51.952;6.146;2022-11-04T04:31:28;100197.31;;;8.73;100.00
29909;BME280;36247;51.952;6.146;2022-11-04T04:34:23;100203.38;;;8.65;100.00
29909;BME280;36247;51.952;6.146;2022-11-04T04:39:24;100218.31;;;8.60;100.00
29909;BME280;36247;51.952;6.146;2022-11-04T04:42:12;100214.78;;;8.60;100.00
29909;BME280;36247;51.952;6.146;2022-11-04T04:44:56;100222.72;;;8.60;100.00
29909;BME280;36247;51.952;6.146;2022-11-04T04:47:30;100211.22;;;8.56;100.00
29909;BME280;36247;51.952;6.146;2022-11-04T04:49:58;100211.09;;;8.47;100.00
29909;BME280;36247;51.952;6.146;2022-11-04T04:52:27;100218.00;;;8.40;100.00
29909;BME280;36247;51.952;6.146;2022-11-04T04:54:54;100205.50;;;8.25;100.00
29909;BME280;36247;51.952;6.146;2022-11-04T04:57:19;100196.63;;;8.19;100.00
29909;BME280;36247;51.952;6.146;2022-11-04T04:59:45;100208.81;;;8.10;100.00
29909;BME280;36247;51.952;6.146;2022-11-04T05:02:10;100203.47;;;8.06;100.00
29909;BME280;36247;51.952;6.146;2022-11-04T05:04:36;100199.91;;;8.01;100.00
29909;BME280;36247;51.952;6.146;2022-11-04T05:07:01;100201.66;;;7.99;100.00
29909;BME280;36247;51.952;6.146;2022-11-04T05:09:27;100216.56;;;7.97;100.00
29909;BME280;36247;51.952;6.146;2022-11-04T05:11:52;100220.88;;;7.91;100.00
29909;BME280;36247;51.952;6.146;2022-11-04T05:14:18;100222.56;;;7.86;100.00
29909;BME280;36247;51.952;6.146;2022-11-04T05:16:44;100223.28;;;7.76;100.00
29909;BME280;36247;51.952;6.146;2022-11-04T05:19:09;100227.28;;;7.52;100.00
29909;BME280;36247;51.952;6.146;2022-11-04T05:21:35;100235.16;;;7.49;100.00
29909;BME280;36247;51.952;6.146;2022-11-04T05:24:00;100230.75;;;7.48;100.00
29909;BME280;36247;51.952;6.146;2022-11-04T05:26:25;100233.16;;;7.36;100.00
29909;BME280;36247;51.952;6.146;2022-11-04T05:28:51;100235.69;;;7.28;100.00
29909;BME280;36247;51.952;6.146;2022-11-04T05:31:17;100238.44;;;7.36;100.00
29909;BME280;36247;51.952;6.146;2022-11-04T05:33:42;100237.22;;;7.15;100.00
29909;BME280;36247;51.952;6.146;2022-11-04T05:36:13;100251.53;;;7.31;100.00
29909;BME280;36247;51.952;6.146;2022-11-04T05:38:40;100250.72;;;7.34;100.00
29909;BME280;36247;51.952;6.146;2022-11-04T05:41:06;100257.72;;;7.32;100.00
29909;BME280;36247;51.952;6.146;2022-11-04T05:43:33;100263.78;;;7.28;100.00
29909;BME280;36247;51.952;6.146;2022-11-04T05:45:59;100258.28;;;7.15;100.00
29909;BME280;36247;51.952;6.146;2022-11-04T05:48:25;100265.56;;;7.29;100.00
29909;BME280;36247;51.952;6.146;2022-11-04T05:50:51;100263.69;;;7.21;100.00
29909;BME280;36247;51.952;6.146;2022-11-04T05:53:17;100265.34;;;7.18;100.00
29909;BME280;36247;51.952;6.146;2022-11-04T05:55:42;100261.94;;;7.23;100.00
29909;BME280;36247;51.952;6.146;2022-11-04T05:58:08;100261.97;;;7.25;100.00
29909;BME280;36247;51.952;6.146;2022-11-04T06:00:34;100263.84;;;7.31;100.00
29909;BME280;36247;51.952;6.146;2022-11-04T06:02:59;100273.53;;;7.32;100.00
29909;BME280;36247;51.952;6.146;2022-11-04T06:05:26;100274.38;;;7.31;100.00
29909;BME280;36247;51.952;6.146;2022-11-04T06:07:52;100284.16;;;7.38;100.00
29909;BME280;36247;51.952;6.146;2022-11-04T06:10:18;100286.81;;;7.38;100.00
29909;BME280;36247;51.952;6.146;2022-11-04T06:12:46;100301.06;;;7.51;100.00
29909;BME280;36247;51.952;6.146;2022-11-04T06:15:12;100313.22;;;7.41;100.00
29909;BME280;36247;51.952;6.146;2022-11-04T06:17:37;100309.69;;;7.39;100.00
29909;BME280;36247;51.952;6.146;2022-11-04T06:20:04;100314.06;;;7.40;100.00
29909;BME280;36247;51.952;6.146;2022-11-04T06:22:31;100331.72;;;7.44;100.00
29909;BME280;36247;51.952;6.146;2022-11-04T06:24:56;100318.41;;;7.36;100.00
29909;BME280;36247;51.952;6.146;2022-11-04T06:27:22;100325.59;;;7.45;100.00
29909;BME280;36247;51.952;6.146;2022-11-04T06:29:48;100321.97;;;7.40;100.00
29909;BME280;36247;51.952;6.146;2022-11-04T06:32:16;100329.75;;;7.34;100.00
29909;BME280;36247;51.952;6.146;2022-11-04T06:34:41;100329.00;;;7.39;100.00
29909;BME280;36247;51.952;6.146;2022-11-04T06:37:07;100322.97;;;7.45;100.00
29909;BME280;36247;51.952;6.146;2022-11-04T06:39:34;100329.13;;;7.47;100.00
29909;BME280;36247;51.952;6.146;2022-11-04T06:42:00;100334.50;;;7.53;100.00
29909;BME280;36247;51.952;6.146;2022-11-04T06:44:25;100330.81;;;7.42;100.00
29909;BME280;36247;51.952;6.146;2022-11-04T06:46:51;100349.19;;;7.39;100.00
29909;BME280;36247;51.952;6.146;2022-11-04T06:49:19;100347.84;;;7.63;100.00
29909;BME280;36247;51.952;6.146;2022-11-04T06:51:46;100347.94;;;7.67;100.00
29909;BME280;36247;51.952;6.146;2022-11-04T06:54:13;100353.09;;;7.61;100.00
29909;BME280;36247;51.952;6.146;2022-11-04T06:56:39;100345.06;;;7.53;100.00
29909;BME280;36247;51.952;6.146;2022-11-04T06:59:05;100357.41;;;7.56;100.00
29909;BME280;36247;51.952;6.146;2022-11-04T07:01:34;100353.19;;;7.67;100.00
29909;BME280;36247;51.952;6.146;2022-11-04T07:04:01;100350.94;;;7.89;100.00
29909;BME280;36247;51.952;6.146;2022-11-04T07:06:28;100350.06;;;7.88;100.00
29909;BME280;36247;51.952;6.146;2022-11-04T07:08:59;100355.31;;;7.87;100.00
29909;BME280;36247;51.952;6.146;2022-11-04T07:11:29;100358.00;;;7.88;100.00
29909;BME280;36247;51.952;6.146;2022-11-04T07:13:55;100359.94;;;7.99;100.00
29909;BME280;36247;51.952;6.146;2022-11-04T07:16:23;100352.13;;;8.06;100.00
29909;BME280;36247;51.952;6.146;2022-11-04T07:18:49;100357.34;;;8.03;100.00
29909;BME280;36247;51.952;6.146;2022-11-04T07:21:16;100356.97;;;7.82;100.00
29909;BME280;36247;51.952;6.146;2022-11-04T07:23:42;100351.75;;;7.85;100.00
29909;BME280;36247;51.952;6.146;2022-11-04T07:26:09;100361.69;;;8.00;100.00
29909;BME280;36247;51.952;6.146;2022-11-04T07:28:36;100362.38;;;7.89;100.00
29909;BME280;36247;51.952;6.146;2022-11-04T07:31:03;100363.25;;;7.87;100.00
29909;BME280;36247;51.952;6.146;2022-11-04T07:33:30;100357.84;;;7.82;100.00
29909;BME280;36247;51.952;6.146;2022-11-04T07:35:57;100356.03;;;7.76;100.00
29909;BME280;36247;51.952;6.146;2022-11-04T07:38:23;100359.63;;;7.82;100.00
29909;BME280;36247;51.952;6.146;2022-11-04T07:40:49;100361.19;;;7.70;100.00
29909;BME280;36247;51.952;6.146;2022-11-04T07:43:15;100367.22;;;7.63;100.00
29909;BME280;36247;51.952;6.146;2022-11-04T07:45:41;100372.63;;;7.71;100.00
29909;BME280;36247;51.952;6.146;2022-11-04T07:48:07;100359.94;;;7.99;100.00
29909;BME280;36247;51.952;6.146;2022-11-04T07:50:33;100373.34;;;8.14;100.00
29909;BME280;36247;51.952;6.146;2022-11-04T07:52:59;100368.25;;;8.26;100.00
29909;BME280;36247;51.952;6.146;2022-11-04T07:55:25;100368.25;;;8.26;100.00
29909;BME280;36247;51.952;6.146;2022-11-04T07:57:50;100370.06;;;8.29;100.00
29909;BME280;36247;51.952;6.146;2022-11-04T08:00:16;100375.56;;;8.43;100.00
29909;BME280;36247;51.952;6.146;2022-11-04T08:02:42;100384.47;;;8.48;100.00
29909;BME280;36247;51.952;6.146;2022-11-04T08:05:14;100387.13;;;8.48;100.00
29909;BME280;36247;51.952;6.146;2022-11-04T08:07:40;100382.09;;;8.67;100.00
29909;BME280;36247;51.952;6.146;2022-11-04T08:10:06;100384.56;;;8.54;100.00
29909;BME280;36247;51.952;6.146;2022-11-04T08:12:31;100380.03;;;8.45;100.00
29909;BME280;36247;51.952;6.146;2022-11-04T08:14:58;100384.31;;;8.40;100.00
29909;BME280;36247;51.952;6.146;2022-11-04T08:17:23;100392.09;;;8.33;100.00
29909;BME280;36247;51.952;6.146;2022-11-04T08:19:49;100394.00;;;8.41;100.00
29909;BME280;36247;51.952;6.146;2022-11-04T08:22:14;100404.47;;;8.35;100.00
29909;BME280;36247;51.952;6.146;2022-11-04T08:24:40;100414.41;;;8.49;100.00
29909;BME280;36247;51.952;6.146;2022-11-04T08:27:05;100422.28;;;8.47;100.00
29909;BME280;36247;51.952;6.146;2022-11-04T08:29:35;100417.88;;;8.47;100.00
29909;BME280;36247;51.952;6.146;2022-11-04T08:32:00;100425.91;;;8.54;100.00
29909;BME280;36247;51.952;6.146;2022-11-04T08:34:26;100419.78;;;8.56;100.00
29909;BME280;36247;51.952;6.146;2022-11-04T08:36:51;100420.81;;;8.64;100.00
29909;BME280;36247;51.952;6.146;2022-11-04T08:39:22;100425.19;;;8.65;100.00
29909;BME280;36247;51.952;6.146;2022-11-04T08:41:49;100433.31;;;8.76;100.00
29909;BME280;36247;51.952;6.146;2022-11-04T08:44:15;100431.66;;;8.86;100.00
29909;BME280;36247;51.952;6.146;2022-11-04T08:46:43;100440.38;;;8.80;100.00
29909;BME280;36247;51.952;6.146;2022-11-04T08:49:09;100447.53;;;8.86;100.00
29909;BME280;36247;51.952;6.146;2022-11-04T08:51:36;100448.34;;;8.83;100.00
29909;BME280;36247;51.952;6.146;2022-11-04T08:54:03;100441.47;;;8.93;100.00
29909;BME280;36247;51.952;6.146;2022-11-04T08:56:32;100445.19;;;9.08;100.00
29909;BME280;36247;51.952;6.146;2022-11-04T08:58:58;100445.19;;;9.08;100.00
29909;BME280;36247;51.952;6.146;2022-11-04T09:01:26;100446.13;;;9.13;100.00
29909;BME280;36247;51.952;6.146;2022-11-04T09:03:52;100441.88;;;9.23;100.00
29909;BME280;36247;51.952;6.146;2022-11-04T09:06:21;100458.59;;;9.23;100.00
29909;BME280;36247;51.952;6.146;2022-11-04T09:08:49;100452.66;;;9.40;100.00
29909;BME280;36247;51.952;6.146;2022-11-04T09:11:15;100457.41;;;9.71;100.00
29909;BME280;36247;51.952;6.146;2022-11-04T09:13:41;100462.94;;;9.93;100.00
29909;BME280;36247;51.952;6.146;2022-11-04T09:16:09;100460.38;;;10.01;100.00
29909;BME280;36247;51.952;6.146;2022-11-04T09:18:35;100466.91;;;10.34;100.00
29909;BME280;36247;51.952;6.146;2022-11-04T09:21:03;100471.06;;;10.13;100.00
29909;BME280;36247;51.952;6.146;2022-11-04T09:23:29;100470.06;;;9.97;100.00
29909;BME280;36247;51.952;6.146;2022-11-04T09:25:55;100476.00;;;9.78;100.00
29909;BME280;36247;51.952;6.146;2022-11-04T09:28:23;100471.78;;;9.95;100.00
29909;BME280;36247;51.952;6.146;2022-11-04T09:30:49;100476.91;;;9.80;100.00
29909;BME280;36247;51.952;6.146;2022-11-04T09:33:15;100470.03;;;9.94;100.00
29909;BME280;36247;51.952;6.146;2022-11-04T09:35:41;100473.56;;;9.96;100.00
29909;BME280;36247;51.952;6.146;2022-11-04T09:38:06;100485.09;;;10.03;100.00
29909;BME280;36247;51.952;6.146;2022-11-04T09:40:34;100479.72;;;9.95;100.00
29909;BME280;36247;51.952;6.146;2022-11-04T09:43:24;100480.81;;;10.14;100.00
29909;BME280;36247;51.952;6.146;2022-11-04T09:45:54;100494.97;;;10.22;100.00
29909;BME280;36247;51.952;6.146;2022-11-04T09:48:37;100499.31;;;10.11;100.00
29909;BME280;36247;51.952;6.146;2022-11-04T09:51:05;100501.16;;;10.18;100.00
29909;BME280;36247;51.952;6.146;2022-11-04T09:53:41;100513.47;;;10.16;100.00
29909;BME280;36247;51.952;6.146;2022-11-04T09:58:44;100512.59;;;10.16;100.00
29909;BME280;36247;51.952;6.146;2022-11-04T10:01:39;100508.44;;;10.38;100.00
29909;BME280;36247;51.952;6.146;2022-11-04T10:24:57;100533.31;;;10.55;100.00
29909;BME280;36247;51.952;6.146;2022-11-04T10:27:29;100528.19;;;10.80;100.00
29909;BME280;36247;51.952;6.146;2022-11-04T10:30:01;100535.31;;;10.86;100.00
29909;BME280;36247;51.952;6.146;2022-11-04T10:32:37;100539.00;;;11.03;100.00
29909;BME280;36247;51.952;6.146;2022-11-04T10:35:21;100539.00;;;11.05;100.00
29909;BME280;36247;51.952;6.146;2022-11-04T10:37:52;100540.88;;;11.20;100.00
29909;BME280;36247;51.952;6.146;2022-11-04T10:40:35;100532.81;;;11.10;100.00
29909;BME280;36247;51.952;6.146;2022-11-04T10:43:03;100528.31;;;10.97;100.00
29909;BME280;36247;51.952;6.146;2022-11-04T10:45:43;100528.44;;;11.09;100.00
29909;BME280;36247;51.952;6.146;2022-11-04T10:48:16;100534.63;;;11.13;100.00
29909;BME280;36247;51.952;6.146;2022-11-04T10:53:19;100523.41;;;11.60;100.00
29909;BME280;36247;51.952;6.146;2022-11-04T10:58:26;100524.19;;;11.42;100.00
29909;BME280;36247;51.952;6.146;2022-11-04T11:00:53;100525.00;;;11.31;100.00
29909;BME280;36247;51.952;6.146;2022-11-04T11:03:31;100536.53;;;11.40;100.00
29909;BME280;36247;51.952;6.146;2022-11-04T11:08:42;100550.72;;;11.44;100.00
29909;BME280;36247;51.952;6.146;2022-11-04T11:11:08;100544.00;;;12.31;100.00
29909;BME280;36247;51.952;6.146;2022-11-04T11:13:37;100539.59;;;12.36;100.00
29909;BME280;36247;51.952;6.146;2022-11-04T11:16:06;100550.84;;;11.72;100.00
29909;BME280;36247;51.952;6.146;2022-11-04T11:18:32;100556.03;;;11.45;100.00
29909;BME280;36247;51.952;6.146;2022-11-04T11:21:12;100545.50;;;11.61;100.00
29909;BME280;36247;51.952;6.146;2022-11-04T11:23:44;100550.06;;;11.91;100.00
29909;BME280;36247;51.952;6.146;2022-11-04T11:26:18;100549.28;;;12.06;100.00
29909;BME280;36247;51.952;6.146;2022-11-04T11:28:52;100553.50;;;11.72;100.00
29909;BME280;36247;51.952;6.146;2022-11-04T11:31:21;100559.69;;;11.66;100.00
29909;BME280;36247;51.952;6.146;2022-11-04T11:33:57;100555.31;;;11.79;100.00
29909;BME280;36247;51.952;6.146;2022-11-04T11:36:33;100554.38;;;11.66;100.00
29909;BME280;36247;51.952;6.146;2022-11-04T11:44:40;100539.63;;;12.73;100.00
29909;BME280;36247;51.952;6.146;2022-11-04T11:47:35;100542.28;;;12.67;100.00
29909;BME280;36247;51.952;6.146;2022-11-04T11:50:29;100551.16;;;12.81;100.00
29909;BME280;36247;51.952;6.146;2022-11-04T11:53:14;100560.00;;;12.69;100.00
29909;BME280;36247;51.952;6.146;2022-11-04T11:55:44;100562.63;;;12.45;100.00
29909;BME280;36247;51.952;6.146;2022-11-04T11:58:26;100562.66;;;13.05;100.00
29909;BME280;36247;51.952;6.146;2022-11-04T12:01:14;100565.31;;;12.93;100.00
29909;BME280;36247;51.952;6.146;2022-11-04T12:03:44;100570.63;;;12.74;100.00
29909;BME280;36247;51.952;6.146;2022-11-04T12:06:36;100575.94;;;12.88;100.00
29909;BME280;36247;51.952;6.146;2022-11-04T12:12:04;100569.72;;;12.46;100.00
29909;BME280;36247;51.952;6.146;2022-11-04T12:17:11;100578.59;;;12.62;100.00
29909;BME280;36247;51.952;6.146;2022-11-04T12:20:02;100580.38;;;12.97;100.00
29909;BME280;36247;51.952;6.146;2022-11-04T12:22:38;100598.03;;;12.36;100.00
29909;BME280;36247;51.952;6.146;2022-11-04T12:25:19;100595.44;;;12.72;100.00
29909;BME280;36247;51.952;6.146;2022-11-04T12:30:19;100601.66;;;12.78;100.00
29909;BME280;36247;51.952;6.146;2022-11-04T12:40:27;100623.78;;;12.62;100.00
29909;BME280;36247;51.952;6.146;2022-11-04T12:43:08;100632.63;;;12.53;100.00
29909;BME280;36247;51.952;6.146;2022-11-04T12:48:06;100628.13;;;12.35;100.00
29909;BME280;36247;51.952;6.146;2022-11-04T12:53:22;100623.69;;;12.32;100.00
29909;BME280;36247;51.952;6.146;2022-11-04T13:01:18;100627.28;;;12.48;100.00
29909;BME280;36247;51.952;6.146;2022-11-04T13:06:22;100633.50;;;12.58;100.00
29909;BME280;36247;51.952;6.146;2022-11-04T13:09:37;100640.59;;;12.61;100.00
29909;BME280;36247;51.952;6.146;2022-11-04T13:12:16;100643.31;;;12.82;100.00
29909;BME280;36247;51.952;6.146;2022-11-04T13:14:51;100642.41;;;12.73;100.00
29909;BME280;36247;51.952;6.146;2022-11-04T13:17:22;100648.63;;;12.85;100.00
29909;BME280;36247;51.952;6.146;2022-11-04T13:19:56;100643.31;;;13.09;100.00
29909;BME280;36247;51.952;6.146;2022-11-04T13:22:25;100646.84;;;13.09;100.00
29909;BME280;36247;51.952;6.146;2022-11-04T13:24:58;100634.41;;;13.70;100.00
29909;BME280;36247;51.952;6.146;2022-11-04T13:27:32;100623.38;;;14.66;100.00
29909;BME280;36247;51.952;6.146;2022-11-04T13:32:45;100627.50;;;15.10;100.00
29909;BME280;36247;51.952;6.146;2022-11-04T13:38:06;100628.13;;;16.24;100.00
29909;BME280;36247;51.952;6.146;2022-11-04T13:40:50;100637.53;;;16.52;100.00
29909;BME280;36247;51.952;6.146;2022-11-04T13:43:33;100642.44;;;16.85;100.00
29909;BME280;36247;51.952;6.146;2022-11-04T13:48:53;100649.47;;;15.41;100.00
29909;BME280;36247;51.952;6.146;2022-11-04T13:51:21;100653.63;;;14.65;100.00
29909;BME280;36247;51.952;6.146;2022-11-04T13:53:51;100647.88;;;15.22;100.00
29909;BME280;36247;51.952;6.146;2022-11-04T13:56:38;100640.81;;;16.73;100.00
29909;BME280;36247;51.952;6.146;2022-11-04T13:59:26;100659.34;;;15.30;100.00
29909;BME280;36247;51.952;6.146;2022-11-04T14:04:44;100679.91;;;15.20;100.00
29909;BME280;36247;51.952;6.146;2022-11-04T14:07:14;100684.84;;;15.66;100.00
29909;BME280;36247;51.952;6.146;2022-11-04T14:14:45;100696.03;;;15.08;100.00
29909;BME280;36247;51.952;6.146;2022-11-04T14:20:25;100698.97;;;14.52;100.00
29909;BME280;36247;51.952;6.146;2022-11-04T14:22:54;100711.53;;;14.19;100.00
29909;BME280;36247;51.952;6.146;2022-11-04T14:25:33;100713.13;;;14.71;100.00
29909;BME280;36247;51.952;6.146;2022-11-04T14:30:53;100734.69;;;13.42;100.00
29909;BME280;36247;51.952;6.146;2022-11-04T14:33:21;100731.94;;;14.20;100.00
29909;BME280;36247;51.952;6.146;2022-11-04T14:35:50;100738.25;;;13.59;100.00
29909;BME280;36247;51.952;6.146;2022-11-04T14:38:27;100738.25;;;13.37;100.00
29909;BME280;36247;51.952;6.146;2022-11-04T14:41:29;100747.91;;;13.00;100.00
29909;BME280;36247;51.952;6.146;2022-11-04T14:43:58;100757.50;;;12.55;100.00
29909;BME280;36247;51.952;6.146;2022-11-04T14:46:28;100765.53;;;12.70;100.00
29909;BME280;36247;51.952;6.146;2022-11-04T14:48:57;100767.28;;;12.57;100.00
29909;BME280;36247;51.952;6.146;2022-11-04T14:51:28;100768.16;;;12.62;100.00
29909;BME280;36247;51.952;6.146;2022-11-04T14:54:22;100766.28;;;12.38;100.00
29909;BME280;36247;51.952;6.146;2022-11-04T14:56:52;100767.91;;;12.10;100.00